createdAt,value
2023-01-21T00:01:10.575Z,14.75
2023-01-21T00:06:15.412Z,13.02
2023-01-21T00:11:18.235Z,14.02
2023-01-21T00:16:20.922Z,18.23
2023-01-21T00:21:23.601Z,14.77
2023-01-21T00:26:26.289Z,16.00
2023-01-21T00:31:29.776Z,17.45
2023-01-21T00:36:32.633Z,18.63
2023-01-21T00:41:37.506Z,16.65
2023-01-21T00:46:40.152Z,15.73
2023-01-21T00:51:42.771Z,14.40
2023-01-21T00:56:45.273Z,15.73
2023-01-21T01:01:47.889Z,16.00
2023-01-21T01:06:50.512Z,23.58
2023-01-21T01:11:53.165Z,24.05
2023-01-21T01:16:55.832Z,31.35
2023-01-21T01:21:58.336Z,28.25
2023-01-21T01:27:00.993Z,35.03
2023-01-21T01:32:03.714Z,36.53
2023-01-21T01:37:06.540Z,31.70
2023-01-21T01:42:14.037Z,28.23
2023-01-21T01:47:16.915Z,30.13
2023-01-21T01:52:20.456Z,34.30
2023-01-21T01:57:27.514Z,31.33
2023-01-21T02:02:31.381Z,30.33
2023-01-21T02:07:39.433Z,31.00
2023-01-21T02:12:43.776Z,27.30
2023-01-21T02:17:52.035Z,27.17
2023-01-21T02:23:18.965Z,27.48
2023-01-21T02:28:21.608Z,25.55
2023-01-21T02:33:28.363Z,26.67
2023-01-21T02:38:45.491Z,26.38
2023-01-21T02:44:02.197Z,27.77
2023-01-21T02:49:07.566Z,24.60
2023-01-21T02:54:14.144Z,24.35
2023-01-21T02:59:16.842Z,24.73
2023-01-21T03:04:28.441Z,25.02
2023-01-21T03:09:32.742Z,24.05
2023-01-21T03:15:16.960Z,25.52
2023-01-21T03:25:22.791Z,26.52
2023-01-21T03:30:26.079Z,21.08
2023-01-21T03:35:33.669Z,24.30
2023-01-21T03:40:40.074Z,20.13
2023-01-21T03:45:45.750Z,19.60
2023-01-21T03:51:00.356Z,23.40
2023-01-21T03:56:03.185Z,18.20
2023-01-21T04:01:05.835Z,17.63
2023-01-21T04:06:09.819Z,17.33
2023-01-21T04:11:12.708Z,16.33
2023-01-21T04:16:15.473Z,18.65
2023-01-21T04:21:18.237Z,14.77
2023-01-21T04:26:20.993Z,16.45
2023-01-21T04:31:23.787Z,16.23
2023-01-21T04:36:26.491Z,10.02
2023-01-21T04:41:29.074Z,10.93
2023-01-21T04:46:31.796Z,10.30
2023-01-21T04:51:34.507Z,12.48
2023-01-21T04:56:37.190Z,14.15
2023-01-21T05:01:39.877Z,12.57
2023-01-21T05:06:42.631Z,12.55
2023-01-21T05:11:45.290Z,12.90
2023-01-21T05:16:47.993Z,11.43
2023-01-21T05:21:50.809Z,12.20
2023-01-21T05:26:53.638Z,14.70
2023-01-21T05:31:56.440Z,12.07
2023-01-21T05:36:59.168Z,12.05
2023-01-21T05:42:01.855Z,13.23
2023-01-21T05:47:04.427Z,13.75
2023-01-21T05:52:07.205Z,15.18
2023-01-21T05:57:10.188Z,16.88
2023-01-21T06:02:12.878Z,14.40
2023-01-21T06:07:15.614Z,15.52
2023-01-21T06:12:18.392Z,16.80
2023-01-21T06:17:21.102Z,16.33
2023-01-21T06:22:24.034Z,16.27
2023-01-21T06:27:26.832Z,25.05
2023-01-21T06:32:29.525Z,19.08
2023-01-21T06:37:32.354Z,14.70
2023-01-21T06:42:34.850Z,17.65
2023-01-21T06:47:40.099Z,19.70
2023-01-21T06:52:43.442Z,19.35
2023-01-21T06:57:46.256Z,16.60
2023-01-21T07:02:48.885Z,17.58
2023-01-21T07:07:53.942Z,15.43
2023-01-21T07:12:56.710Z,17.15
2023-01-21T07:17:59.472Z,17.15
2023-01-21T07:23:02.144Z,25.23
2023-01-21T07:28:04.753Z,19.00
2023-01-21T07:33:08.206Z,17.58
2023-01-21T07:38:10.889Z,27.48
2023-01-21T07:43:13.337Z,24.80
2023-01-21T07:48:16.055Z,18.92
2023-01-21T07:53:18.839Z,20.90
2023-01-21T07:58:21.571Z,26.50
2023-01-21T08:03:25.527Z,19.08
2023-01-21T08:08:28.125Z,19.35
2023-01-21T08:13:30.824Z,21.67
2023-01-21T08:18:33.603Z,17.65
2023-01-21T08:23:36.683Z,19.52
2023-01-21T08:28:39.475Z,18.67
2023-01-21T08:33:41.954Z,19.23
2023-01-21T08:38:46.678Z,20.10
2023-01-21T08:43:50.249Z,19.70
2023-01-21T08:48:53.151Z,20.15
2023-01-21T08:53:55.637Z,16.23
2023-01-21T08:58:58.366Z,17.00
2023-01-21T09:04:01.319Z,18.25
2023-01-21T09:09:04.107Z,15.88
2023-01-21T09:14:07.075Z,18.17
2023-01-21T09:19:09.753Z,17.75
2023-01-21T09:24:12.714Z,20.33
2023-01-21T09:29:15.441Z,17.15
2023-01-21T09:34:18.257Z,20.27
2023-01-21T09:39:20.934Z,19.05
2023-01-21T09:44:29.794Z,18.95
2023-01-21T09:49:34.975Z,18.92
2023-01-21T09:54:39.068Z,17.30
2023-01-21T10:00:00.354Z,15.38
2023-01-21T10:05:32.615Z,15.80
2023-01-21T10:10:52.161Z,17.10
2023-01-21T10:16:04.076Z,16.83
2023-01-21T10:21:10.415Z,17.90
2023-01-21T10:26:13.784Z,21.42
2023-01-21T10:31:27.011Z,19.23
2023-01-21T10:36:41.942Z,16.77
2023-01-21T10:41:50.836Z,16.25
2023-01-21T10:46:59.615Z,16.98
2023-01-21T10:52:34.995Z,16.15
2023-01-21T10:57:46.861Z,17.92
2023-01-21T11:02:53.548Z,14.93
2023-01-21T11:07:57.307Z,15.73
2023-01-21T11:13:00.018Z,15.88
2023-01-21T11:18:22.616Z,14.18
2023-01-21T11:23:32.785Z,13.45
2023-01-21T11:28:35.759Z,11.63
2023-01-21T11:33:38.766Z,16.80
2023-01-21T11:38:41.953Z,12.73
2023-01-21T11:43:51.617Z,15.77
2023-01-21T11:48:55.139Z,10.27
2023-01-21T11:54:07.129Z,12.88
2023-01-21T11:59:32.939Z,12.17
2023-01-21T12:04:37.434Z,9.85
2023-01-21T12:09:40.198Z,8.77
2023-01-21T12:14:43.039Z,9.82
2023-01-21T12:19:52.581Z,12.60
2023-01-21T12:25:13.995Z,10.48
2023-01-21T12:30:16.952Z,9.07
2023-01-21T12:35:24.706Z,9.90
2023-01-21T12:40:45.981Z,8.02
2023-01-21T12:45:53.781Z,7.88
2023-01-21T12:50:58.965Z,7.38
2023-01-21T12:56:01.664Z,7.10
2023-01-21T13:01:10.632Z,7.45
2023-01-21T13:06:29.696Z,6.28
2023-01-21T13:12:06.186Z,5.13
2023-01-21T13:17:15.448Z,6.93
2023-01-21T13:22:29.328Z,5.88
2023-01-21T13:27:36.825Z,7.47
2023-01-21T13:32:53.507Z,6.30
2023-01-21T13:37:58.683Z,6.20
2023-01-21T13:43:14.265Z,4.38
2023-01-21T13:48:22.848Z,6.55
2023-01-21T13:53:44.237Z,6.60
2023-01-21T13:58:47.946Z,6.18
2023-01-21T14:04:05.404Z,6.30
2023-01-21T14:09:13.384Z,7.25
2023-01-21T14:14:18.886Z,5.38
2023-01-21T14:19:50.008Z,4.72
2023-01-21T14:24:52.764Z,4.82
2023-01-21T14:30:04.918Z,5.50
2023-01-21T14:35:11.500Z,5.38
2023-01-21T14:40:20.106Z,4.65
2023-01-21T14:45:25.798Z,4.07
2023-01-21T14:50:51.154Z,4.45
2023-01-21T14:56:09.063Z,3.42
2023-01-21T15:01:24.486Z,3.47
2023-01-21T15:06:27.082Z,4.45
2023-01-21T15:11:32.085Z,4.38
2023-01-21T15:16:39.040Z,2.75
2023-01-21T15:21:41.771Z,4.43
2023-01-21T15:27:10.576Z,3.33
2023-01-21T15:32:25.588Z,5.85
2023-01-21T15:37:29.713Z,6.25
2023-01-21T15:42:51.611Z,7.28
2023-01-21T15:48:06.602Z,8.07
2023-01-21T15:53:20.764Z,6.63
2023-01-21T15:58:42.709Z,7.75
2023-01-21T16:03:52.203Z,5.07
2023-01-21T16:09:15.164Z,12.93
2023-01-21T16:14:17.623Z,7.40
2023-01-21T16:19:22.024Z,9.07
2023-01-21T16:24:26.298Z,4.47
2023-01-21T16:29:29.034Z,7.72
2023-01-21T16:34:31.699Z,8.57
2023-01-21T16:39:34.187Z,8.48
2023-01-21T16:44:37.103Z,6.50
2023-01-21T16:49:43.358Z,6.28
2023-01-21T16:54:50.685Z,6.95
2023-01-21T16:59:55.994Z,8.70
2023-01-21T17:04:59.782Z,7.40
2023-01-21T17:10:04.258Z,6.30
2023-01-21T17:15:14.375Z,6.82
2023-01-21T17:20:35.527Z,6.72
2023-01-21T17:25:38.124Z,7.20
2023-01-21T17:30:40.921Z,5.72
2023-01-21T17:36:03.441Z,8.50
2023-01-21T17:41:11.855Z,5.00
2023-01-21T17:46:15.662Z,8.80
2023-01-21T17:51:20.483Z,5.63
2023-01-21T17:56:41.826Z,8.27
2023-01-21T18:01:44.312Z,4.85
2023-01-21T18:06:46.911Z,8.63
2023-01-21T18:11:50.651Z,9.75
2023-01-21T18:16:53.869Z,14.57
2023-01-21T18:21:56.415Z,7.90
2023-01-21T18:27:00.150Z,8.38
2023-01-21T18:32:02.898Z,7.28
2023-01-21T18:37:15.516Z,8.32
2023-01-21T18:42:18.211Z,8.73
2023-01-21T18:47:20.769Z,6.28
2023-01-21T18:52:23.535Z,7.68
2023-01-21T18:57:26.622Z,7.43
2023-01-21T19:02:29.410Z,7.35
2023-01-21T19:07:33.034Z,4.72
2023-01-21T19:12:38.413Z,6.68
2023-01-21T19:17:40.910Z,5.63
2023-01-21T19:22:43.460Z,5.57
2023-01-21T19:27:47.294Z,5.53
2023-01-21T19:32:50.702Z,7.10
2023-01-21T19:37:53.773Z,5.10
2023-01-21T19:42:56.459Z,5.28
2023-01-21T19:47:59.203Z,5.40
2023-01-21T19:53:01.932Z,6.82
2023-01-21T19:58:05.562Z,6.20
2023-01-21T20:03:10.348Z,8.65
2023-01-21T20:08:14.330Z,8.98
2023-01-21T20:13:16.940Z,11.65
2023-01-21T20:18:25.741Z,9.05
2023-01-21T20:23:28.497Z,8.13
2023-01-21T20:28:40.088Z,6.57
2023-01-21T20:33:44.092Z,7.88
2023-01-21T20:38:46.925Z,5.97
2023-01-21T20:43:49.685Z,8.00
2023-01-21T20:48:52.457Z,5.47
2023-01-21T20:53:54.914Z,6.88
2023-01-21T20:58:57.942Z,5.57
2023-01-21T21:04:00.613Z,9.25
2023-01-21T21:09:03.226Z,6.05
2023-01-21T21:14:06.094Z,7.13
2023-01-21T21:19:11.111Z,6.85
2023-01-21T21:24:13.611Z,5.65
2023-01-21T21:29:16.595Z,6.43
2023-01-21T21:34:19.685Z,10.38
2023-01-21T21:39:22.304Z,7.75
2023-01-21T21:44:24.861Z,9.40
2023-01-21T21:49:28.163Z,10.70
2023-01-21T21:54:31.369Z,6.75
2023-01-21T21:59:33.969Z,5.63
2023-01-21T22:04:36.868Z,8.95
2023-01-21T22:09:39.556Z,5.32
2023-01-21T22:14:42.269Z,8.15
2023-01-21T22:19:44.870Z,7.43
2023-01-21T22:24:47.649Z,6.22
2023-01-21T22:29:50.309Z,7.80
2023-01-21T22:34:53.080Z,5.78
2023-01-21T22:39:55.772Z,8.05
2023-01-21T22:44:59.050Z,6.07
2023-01-21T22:50:01.872Z,6.70
2023-01-21T22:55:04.805Z,6.78
2023-01-21T23:00:09.627Z,9.43
2023-01-21T23:05:12.553Z,6.35
2023-01-21T23:10:15.267Z,6.60
2023-01-21T23:15:18.321Z,3.88
2023-01-21T23:20:21.110Z,6.68
2023-01-21T23:25:24.045Z,6.25
2023-01-21T23:30:26.779Z,6.13
2023-01-21T23:35:29.855Z,5.18
2023-01-21T23:40:32.351Z,5.10
2023-01-21T23:45:34.946Z,4.75
2023-01-21T23:50:37.554Z,4.32
2023-01-21T23:55:40.065Z,6.13
